Time,TemperatureF,DewpointF,PressureIn,WindDirection,WindDirectionDegrees,WindSpeedMPH,WindSpeedGustMPH,Humidity,HourlyPrecipIn,Conditions,Clouds,dailyrainin,SoftwareType,DateUTC
2013-04-05 00:10:00,51.6,45.7,29.90,SSE,157,9.4,11.0,80,0.02,,,0.14,open2300-1.11,2013-04-05 07:10:00,
2013-04-05 00:20:00,51.6,46.0,29.91,South,180,5.4,12.8,81,0.02,,,0.14,open2300-1.11,2013-04-05 07:20:00,
2013-04-05 00:30:00,51.6,46.0,29.91,South,180,5.4,11.9,81,0.02,,,0.14,open2300-1.11,2013-04-05 07:30:00,
2013-04-05 00:40:00,51.6,46.0,29.91,South,180,5.4,10.7,81,0.00,,,0.14,open2300-1.11,2013-04-05 07:40:00,
2013-04-05 00:50:00,51.6,46.0,29.91,South,180,6.9,15.0,81,0.00,,,0.14,open2300-1.11,2013-04-05 07:50:00,
2013-04-05 01:10:00,51.8,46.2,29.91,South,180,6.5,12.3,81,0.00,,,0.14,open2300-1.11,2013-04-05 08:10:00,
2013-04-05 01:20:00,52.0,46.3,29.91,SSW,202,2.5,13.2,81,0.00,,,0.14,open2300-1.11,2013-04-05 08:20:00,
2013-04-05 01:30:00,52.0,46.3,29.91,South,180,6.9,13.0,81,0.00,,,0.14,open2300-1.11,2013-04-05 08:30:00,
2013-04-05 01:40:00,52.0,46.3,29.92,South,180,6.9,11.4,81,0.00,,,0.14,open2300-1.11,2013-04-05 08:40:00,
2013-04-05 01:50:00,52.0,46.3,29.92,South,180,5.6,11.9,81,0.00,,,0.14,open2300-1.11,2013-04-05 08:50:00,
2013-04-05 02:10:00,52.3,46.7,29.92,South,180,7.6,11.6,81,0.00,,,0.14,open2300-1.11,2013-04-05 09:10:00,
2013-04-05 02:20:00,52.3,46.7,29.92,SSE,157,2.0,14.8,81,0.00,,,0.14,open2300-1.11,2013-04-05 09:20:00,
2013-04-05 02:30:00,52.3,46.7,29.92,South,180,6.3,11.0,81,0.00,,,0.14,open2300-1.11,2013-04-05 09:30:00,
2013-04-05 02:40:00,52.3,46.7,29.92,SSE,157,6.9,11.6,81,0.00,,,0.14,open2300-1.11,2013-04-05 09:40:00,
2013-04-05 02:50:00,52.2,46.5,29.93,SSW,202,6.0,13.2,81,0.00,,,0.14,open2300-1.11,2013-04-05 09:50:00,
2013-04-05 03:10:00,52.2,46.5,29.94,SSW,202,7.2,12.1,81,0.00,,,0.14,open2300-1.11,2013-04-05 10:10:00,
2013-04-05 03:20:00,52.0,46.7,29.94,South,180,0.0,10.5,82,0.00,,,0.14,open2300-1.11,2013-04-05 10:20:00,
2013-04-05 03:30:00,51.8,46.5,29.94,SSW,202,2.7,11.0,82,0.00,,,0.14,open2300-1.11,2013-04-05 10:30:00,
2013-04-05 03:40:00,51.6,46.6,29.94,SSE,157,2.2,9.6,83,0.00,,,0.14,open2300-1.11,2013-04-05 10:40:00,
2013-04-05 03:50:00,51.6,46.6,29.94,South,180,0.0,9.6,83,0.00,,,0.14,open2300-1.11,2013-04-05 10:50:00,
2013-04-05 04:10:00,51.4,46.4,29.95,South,180,8.3,9.4,83,0.00,,,0.14,open2300-1.11,2013-04-05 11:10:00,
2013-04-05 04:20:00,51.4,46.4,29.96,SSE,157,8.9,9.2,83,0.00,,,0.14,open2300-1.11,2013-04-05 11:20:00,
2013-04-05 04:30:00,51.4,46.7,29.95,South,180,7.4,10.7,84,0.00,,,0.14,open2300-1.11,2013-04-05 11:30:00,
2013-04-05 04:40:00,51.4,46.7,29.96,South,180,7.2,11.9,84,0.00,,,0.14,open2300-1.11,2013-04-05 11:40:00,
2013-04-05 04:50:00,51.3,46.5,29.96,SE,135,0.0,10.5,84,0.00,,,0.14,open2300-1.11,2013-04-05 11:50:00,
2013-04-05 05:10:00,51.1,46.4,29.96,South,180,8.7,10.1,84,0.00,,,0.14,open2300-1.11,2013-04-05 12:10:00,
2013-04-05 05:20:00,50.9,46.2,29.96,SE,135,7.2,9.8,84,0.00,,,0.14,open2300-1.11,2013-04-05 12:20:00,
2013-04-05 05:30:00,50.9,46.5,29.96,SSE,157,5.6,8.3,85,0.00,,,0.14,open2300-1.11,2013-04-05 12:30:00,
2013-04-05 05:40:00,50.9,46.5,29.96,South,180,5.1,8.7,85,0.00,,,0.14,open2300-1.11,2013-04-05 12:40:00,
2013-04-05 05:50:00,50.9,46.5,29.96,South,180,6.5,8.3,85,0.00,,,0.14,open2300-1.11,2013-04-05 12:50:00,
2013-04-05 06:10:00,50.9,46.5,29.96,SSE,157,2.7,7.8,85,0.00,,,0.12,open2300-1.11,2013-04-05 13:10:00,
2013-04-05 06:20:00,50.9,46.5,29.96,SSE,157,0.0,8.7,85,0.00,,,0.12,open2300-1.11,2013-04-05 13:20:00,
2013-04-05 06:30:00,51.1,46.7,29.96,SE,135,4.9,10.1,85,0.00,,,0.12,open2300-1.11,2013-04-05 13:30:00,
2013-04-05 06:40:00,51.1,46.4,29.96,South,180,0.0,8.3,84,0.00,,,0.12,open2300-1.11,2013-04-05 13:40:00,
2013-04-05 06:50:00,51.1,46.4,29.96,SSE,157,0.0,8.5,84,0.00,,,0.12,open2300-1.11,2013-04-05 13:50:00,
2013-04-05 07:00:00,51.1,46.4,29.96,South,180,8.5,8.5,84,0.00,,,0.12,open2300-1.11,2013-04-05 14:00:00,
2013-04-05 07:10:00,51.1,46.4,29.97,South,180,0.0,8.5,84,0.00,,,0.12,open2300-1.11,2013-04-05 14:10:00,
2013-04-05 07:20:00,51.1,46.4,29.96,South,180,0.0,7.2,84,0.00,,,0.12,open2300-1.11,2013-04-05 14:20:00,
2013-04-05 07:30:00,51.3,46.5,29.96,SSE,157,0.0,6.3,84,0.00,,,0.12,open2300-1.11,2013-04-05 14:30:00,
2013-04-05 07:40:00,51.4,46.7,29.96,South,180,1.6,7.8,84,0.00,,,0.12,open2300-1.11,2013-04-05 14:40:00,
2013-04-05 07:50:00,51.8,47.1,29.96,South,180,0.0,11.2,84,0.00,,,0.12,open2300-1.11,2013-04-05 14:50:00,
2013-04-05 08:00:00,52.0,47.0,29.97,South,180,0.0,7.8,83,0.00,,,0.12,open2300-1.11,2013-04-05 15:00:00,
2013-04-05 08:10:00,52.2,47.1,29.97,SSE,157,6.0,8.3,83,0.00,,,0.12,open2300-1.11,2013-04-05 15:10:00,
2013-04-05 08:20:00,52.3,47.3,29.97,SSE,157,3.8,8.5,83,0.00,,,0.12,open2300-1.11,2013-04-05 15:20:00,
2013-04-05 08:30:00,52.5,47.5,29.97,SSW,202,6.0,11.2,83,0.00,,,0.12,open2300-1.11,2013-04-05 15:30:00,
2013-04-05 08:40:00,52.7,47.4,29.97,South,180,0.0,10.7,82,0.00,,,0.12,open2300-1.11,2013-04-05 15:40:00,
2013-04-05 08:50:00,53.4,48.1,29.98,South,180,8.3,12.1,82,0.00,,,0.12,open2300-1.11,2013-04-05 15:50:00,
2013-04-05 09:00:00,54.3,48.9,29.97,South,180,0.0,13.4,82,0.00,,,0.12,open2300-1.11,2013-04-05 16:00:00,
2013-04-05 09:10:00,55.2,48.8,29.97,SE,135,5.1,12.8,79,0.00,,,0.12,open2300-1.11,2013-04-05 16:10:00,
2013-04-05 09:20:00,55.6,48.8,29.97,South,180,9.4,13.4,78,0.00,,,0.12,open2300-1.11,2013-04-05 16:20:00,
2013-04-05 09:30:00,56.5,49.6,29.97,SSE,157,6.5,13.2,78,0.00,,,0.12,open2300-1.11,2013-04-05 16:30:00,
2013-04-05 09:40:00,57.0,49.5,29.97,South,180,5.8,13.2,76,0.00,,,0.12,open2300-1.11,2013-04-05 16:40:00,
2013-04-05 09:50:00,57.4,49.1,29.97,South,180,8.3,15.9,74,0.00,,,0.12,open2300-1.11,2013-04-05 16:50:00,
2013-04-05 10:00:00,57.7,49.5,29.97,South,180,6.7,14.5,74,0.00,,,0.10,open2300-1.11,2013-04-05 17:00:00,
2013-04-05 10:10:00,58.8,50.2,29.97,South,180,11.2,12.3,73,0.00,,,0.10,open2300-1.11,2013-04-05 17:10:00,
2013-04-05 10:20:00,58.8,49.8,29.97,SSW,202,7.4,19.5,72,0.00,,,0.10,open2300-1.11,2013-04-05 17:20:00,
2013-04-05 10:30:00,58.8,49.8,29.97,SSW,202,6.9,12.5,72,0.00,,,0.10,open2300-1.11,2013-04-05 17:30:00,
2013-04-05 10:40:00,59.0,50.0,29.97,SSE,157,7.8,13.0,72,0.00,,,0.10,open2300-1.11,2013-04-05 17:40:00,
2013-04-05 10:50:00,58.8,50.9,29.97,SSW,202,7.8,12.8,75,0.00,,,0.10,open2300-1.11,2013-04-05 17:50:00,
2013-04-05 11:00:00,59.2,51.3,29.98,South,180,8.5,11.0,75,0.00,,,0.08,open2300-1.11,2013-04-05 18:00:00,
2013-04-05 11:10:00,60.4,51.4,29.98,SSE,157,7.8,13.6,72,0.00,,,0.08,open2300-1.11,2013-04-05 18:10:00,
2013-04-05 11:20:00,60.8,50.2,29.98,SW,225,11.0,15.0,68,0.00,,,0.08,open2300-1.11,2013-04-05 18:20:00,
2013-04-05 11:30:00,59.7,48.8,29.99,SW,225,9.6,15.4,67,0.00,,,0.08,open2300-1.11,2013-04-05 18:30:00,
2013-04-05 11:40:00,58.8,48.7,29.99,SSW,202,8.1,14.3,69,0.00,,,0.08,open2300-1.11,2013-04-05 18:40:00,
2013-04-05 11:50:00,58.8,49.1,29.99,South,180,9.6,12.3,70,0.00,,,0.08,open2300-1.11,2013-04-05 18:50:00,
2013-04-05 12:00:00,59.5,49.4,29.99,SSW,202,6.3,13.4,69,0.00,,,0.06,open2300-1.11,2013-04-05 19:00:00,
2013-04-05 12:10:00,60.1,49.1,29.99,SSW,202,7.4,10.1,67,0.00,,,0.06,open2300-1.11,2013-04-05 19:10:00,
2013-04-05 12:20:00,60.1,48.7,29.99,SSW,202,8.3,15.2,66,0.00,,,0.06,open2300-1.11,2013-04-05 19:20:00,
2013-04-05 12:30:00,60.1,48.7,29.99,South,180,6.9,14.3,66,0.00,,,0.06,open2300-1.11,2013-04-05 19:30:00,
2013-04-05 12:40:00,59.9,48.1,29.99,SSW,202,6.5,13.2,65,0.00,,,0.06,open2300-1.11,2013-04-05 19:40:00,
2013-04-05 12:50:00,60.1,48.7,29.98,South,180,7.6,12.5,66,0.00,,,0.06,open2300-1.11,2013-04-05 19:50:00,
2013-04-05 13:00:00,60.4,49.1,29.98,SSW,202,8.3,11.0,66,0.00,,,0.06,open2300-1.11,2013-04-05 20:00:00,
2013-04-05 13:10:00,60.6,48.4,29.98,SW,225,8.7,13.6,64,0.00,,,0.02,open2300-1.11,2013-04-05 20:10:00,
2013-04-05 13:20:00,60.8,49.0,29.98,SW,225,6.7,14.8,65,0.00,,,0.02,open2300-1.11,2013-04-05 20:20:00,
2013-04-05 13:30:00,60.6,48.8,29.98,South,180,9.4,10.3,65,0.00,,,0.02,open2300-1.11,2013-04-05 20:30:00,
2013-04-05 13:40:00,60.4,48.7,29.98,SSW,202,7.2,14.1,65,0.00,,,0.02,open2300-1.11,2013-04-05 20:40:00,
2013-04-05 13:50:00,60.4,48.7,29.98,South,180,5.6,11.0,65,0.00,,,0.02,open2300-1.11,2013-04-05 20:50:00,
2013-04-05 14:00:00,59.9,48.9,29.98,SW,225,6.0,9.2,67,0.00,,,0.02,open2300-1.11,2013-04-05 21:00:00,
2013-04-05 14:10:00,59.5,48.6,29.98,SSW,202,0.0,10.1,67,0.00,,,0.02,open2300-1.11,2013-04-05 21:10:00,
2013-04-05 14:20:00,58.8,47.9,29.98,SSW,202,7.6,10.1,67,0.00,,,0.02,open2300-1.11,2013-04-05 21:20:00,
2013-04-05 14:30:00,58.6,48.1,29.97,South,180,7.6,11.6,68,0.00,,,0.02,open2300-1.11,2013-04-05 21:30:00,
2013-04-05 14:40:00,58.5,48.3,29.98,SSE,157,4.5,12.3,69,0.00,,,0.02,open2300-1.11,2013-04-05 21:40:00,
2013-04-05 14:50:00,58.3,48.6,29.98,SSE,157,7.2,9.2,70,0.00,,,0.02,open2300-1.11,2013-04-05 21:50:00,
2013-04-05 15:00:00,57.9,48.2,29.98,South,180,5.6,8.1,70,0.00,,,0.02,open2300-1.11,2013-04-05 22:00:00,
2013-04-05 15:10:00,57.6,48.2,29.98,SSW,202,6.5,9.6,71,0.00,,,0.02,open2300-1.11,2013-04-05 22:10:00,
2013-04-05 15:20:00,57.0,47.7,29.97,SSW,202,6.5,8.7,71,0.00,,,0.02,open2300-1.11,2013-04-05 22:20:00,
2013-04-05 15:30:00,56.8,48.2,29.98,South,180,7.4,8.7,73,0.02,,,0.04,open2300-1.11,2013-04-05 22:30:00,
2013-04-05 15:40:00,56.1,47.5,29.98,SSW,202,0.7,10.7,73,0.02,,,0.04,open2300-1.11,2013-04-05 22:40:00,
2013-04-05 15:50:00,55.9,47.7,29.97,SSW,202,6.7,9.2,74,0.02,,,0.04,open2300-1.11,2013-04-05 22:50:00,
2013-04-05 16:00:00,55.2,47.4,29.97,SSE,157,4.9,10.7,75,0.02,,,0.04,open2300-1.11,2013-04-05 23:00:00,
2013-04-05 16:10:00,55.0,47.6,29.97,South,180,0.0,6.5,76,0.04,,,0.06,open2300-1.11,2013-04-05 23:10:00,
2013-04-05 16:20:00,55.0,47.9,29.97,SE,135,0.0,8.1,77,0.04,,,0.06,open2300-1.11,2013-04-05 23:20:00,
2013-04-05 16:30:00,55.0,47.9,29.96,ESE,112,0.0,8.1,77,0.02,,,0.06,open2300-1.11,2013-04-05 23:30:00,
2013-04-05 16:40:00,54.9,48.1,29.96,SE,135,0.0,8.5,78,0.02,,,0.06,open2300-1.11,2013-04-05 23:40:00,
2013-04-05 16:50:00,54.7,47.9,29.96,SSW,202,5.6,8.5,78,0.02,,,0.06,open2300-1.11,2013-04-05 23:50:00,
2013-04-05 17:00:00,54.9,48.4,29.96,ESE,112,2.7,8.1,79,0.00,,,0.06,open2300-1.11,2013-04-06 00:00:00,
2013-04-05 17:10:00,55.0,48.6,29.95,SE,135,0.0,8.7,79,0.00,,,0.06,open2300-1.11,2013-04-06 00:10:00,
2013-04-05 17:20:00,55.2,48.8,29.95,South,180,1.1,7.6,79,0.00,,,0.06,open2300-1.11,2013-04-06 00:20:00,
2013-04-05 17:30:00,55.2,49.1,29.94,SE,135,0.0,8.7,80,0.00,,,0.06,open2300-1.11,2013-04-06 00:30:00,
2013-04-05 17:40:00,55.4,48.9,29.94,SSE,157,5.6,9.6,79,0.00,,,0.06,open2300-1.11,2013-04-06 00:40:00,
2013-04-05 17:50:00,55.2,48.8,29.94,South,180,4.5,10.5,79,0.00,,,0.06,open2300-1.11,2013-04-06 00:50:00,
2013-04-05 18:00:00,55.0,49.0,29.94,South,180,9.2,9.8,80,0.00,,,0.06,open2300-1.11,2013-04-06 01:00:00,
2013-04-05 18:10:00,54.7,48.6,29.94,SSW,202,9.8,11.4,80,0.00,,,0.06,open2300-1.11,2013-04-06 01:10:00,
2013-04-05 18:20:00,54.7,48.6,29.93,SSE,157,0.0,10.7,80,0.02,,,0.08,open2300-1.11,2013-04-06 01:20:00,
2013-04-05 18:30:00,54.3,48.3,29.93,SSE,157,0.0,10.1,80,0.02,,,0.08,open2300-1.11,2013-04-06 01:30:00,
2013-04-05 18:40:00,54.1,48.2,29.93,SSE,157,6.0,8.1,80,0.02,,,0.08,open2300-1.11,2013-04-06 01:40:00,
2013-04-05 18:50:00,53.8,47.8,29.93,SE,135,7.2,9.4,80,0.02,,,0.08,open2300-1.11,2013-04-06 01:50:00,
2013-04-05 19:00:00,53.4,47.5,29.93,SSW,202,3.8,8.7,80,0.02,,,0.08,open2300-1.11,2013-04-06 02:00:00,
2013-04-05 19:10:00,53.2,47.3,29.92,SSE,157,7.6,7.6,80,0.02,,,0.08,open2300-1.11,2013-04-06 02:10:00,
2013-04-05 19:20:00,52.9,46.9,29.91,South,180,0.0,7.8,80,0.00,,,0.08,open2300-1.11,2013-04-06 02:20:00,
2013-04-05 19:30:00,52.7,47.1,29.91,SSE,157,0.0,2.5,81,0.00,,,0.08,open2300-1.11,2013-04-06 02:30:00,
2013-04-05 19:40:00,52.3,46.7,29.91,SSE,157,0.0,4.2,81,0.00,,,0.08,open2300-1.11,2013-04-06 02:40:00,
2013-04-05 19:50:00,52.2,46.8,29.90,SSE,157,4.0,7.2,82,0.00,,,0.08,open2300-1.11,2013-04-06 02:50:00,
2013-04-05 20:00:00,52.0,46.7,29.90,South,180,0.0,9.2,82,0.00,,,0.08,open2300-1.11,2013-04-06 03:00:00,
2013-04-05 20:10:00,51.8,46.5,29.89,SE,135,0.0,3.1,82,0.00,,,0.08,open2300-1.11,2013-04-06 03:10:00,
2013-04-05 20:20:00,51.6,46.3,29.89,SE,135,0.0,1.8,82,0.00,,,0.08,open2300-1.11,2013-04-06 03:20:00,
2013-04-05 20:30:00,51.6,46.6,29.89,SE,135,0.0,2.5,83,0.02,,,0.10,open2300-1.11,2013-04-06 03:30:00,
2013-04-05 20:40:00,51.6,46.6,29.88,SE,135,0.0,7.4,83,0.02,,,0.10,open2300-1.11,2013-04-06 03:40:00,
2013-04-05 20:50:00,51.6,46.6,29.88,ESE,112,0.0,6.5,83,0.02,,,0.10,open2300-1.11,2013-04-06 03:50:00,
2013-04-05 21:00:00,51.4,46.7,29.88,ESE,112,0.0,4.2,84,0.02,,,0.10,open2300-1.11,2013-04-06 04:00:00,
2013-04-05 21:10:00,51.4,46.7,29.88,ESE,112,0.0,3.6,84,0.02,,,0.10,open2300-1.11,2013-04-06 04:10:00,
2013-04-05 21:20:00,51.3,46.5,29.88,ESE,112,0.0,0.0,84,0.00,,,0.10,open2300-1.11,2013-04-06 04:20:00,
2013-04-05 21:30:00,51.1,46.4,29.89,ESE,112,0.0,3.4,84,0.02,,,0.12,open2300-1.11,2013-04-06 04:30:00,
2013-04-05 21:40:00,51.1,46.4,29.88,SE,135,0.0,2.0,84,0.02,,,0.12,open2300-1.11,2013-04-06 04:40:00,
2013-04-05 21:50:00,50.9,46.2,29.88,SSE,157,4.9,6.3,84,0.02,,,0.12,open2300-1.11,2013-04-06 04:50:00,
2013-04-05 22:00:00,50.9,46.2,29.88,SE,135,0.0,6.9,84,0.02,,,0.12,open2300-1.11,2013-04-06 05:00:00,
2013-04-05 22:10:00,50.9,46.2,29.87,SE,135,0.0,5.4,84,0.02,,,0.12,open2300-1.11,2013-04-06 05:10:00,
2013-04-05 22:20:00,50.9,46.2,29.87,SE,135,0.0,6.0,84,0.02,,,0.12,open2300-1.11,2013-04-06 05:20:00,
2013-04-05 22:30:00,50.9,46.2,29.88,SSE,157,0.0,7.4,84,0.02,,,0.14,open2300-1.11,2013-04-06 05:30:00,
2013-04-05 22:40:00,50.9,46.2,29.87,SSE,157,0.0,7.8,84,0.02,,,0.14,open2300-1.11,2013-04-06 05:40:00,
2013-04-05 22:50:00,50.9,46.5,29.87,SE,135,0.0,6.7,85,0.02,,,0.14,open2300-1.11,2013-04-06 05:50:00,
2013-04-05 23:00:00,51.1,46.7,29.87,South,180,0.0,9.8,85,0.02,,,0.12,open2300-1.11,2013-04-06 06:00:00,
2013-04-05 23:10:00,51.3,46.8,29.87,SSW,202,6.0,11.6,85,0.02,,,0.12,open2300-1.11,2013-04-06 06:10:00,
2013-04-05 23:20:00,51.4,47.0,29.87,South,180,8.5,14.8,85,0.02,,,0.12,open2300-1.11,2013-04-06 06:20:00,
2013-04-05 23:30:00,51.4,47.0,29.87,SSE,157,8.1,15.9,85,0.00,,,0.12,open2300-1.11,2013-04-06 06:30:00,
2013-04-05 23:40:00,51.4,47.0,29.87,South,180,7.4,13.0,85,0.00,,,0.12,open2300-1.11,2013-04-06 06:40:00,
2013-04-05 23:50:00,51.4,47.0,29.87,South,180,11.0,13.4,85,0.02,,,0.14,open2300-1.11,2013-04-06 06:50:00,